METAR AND TAF INFORMATION

METAR FOR LPMA
ADDS - METARS form results

(0735 UTC 29 September 2022)
Data provider http://aviationweather.gov/metar/data/
 
METAR text: LPMA 290730Z 01008KT 330V040 9999 BKN015 20/16 Q1021
Conditions at: LPMA (FUNCHAL/MADEIRA , PT) observed 0730 UTC 29 September 2022
Temperature: 20.0°C (68°F)
Dewpoint: 16.0°C (61°F) [RH = 78%]
Pressure (altimeter): 30.15 inches Hg (1021.0 mb)
Winds: from the N (10 degrees) at 9 MPH (8 knots; 4.1 m/s)
Visibility: 6 or more miles (10+ km)
Ceiling: 1500 feet AGL
Clouds: broken clouds at 1500 feet AGL
Weather: no significant weather observed at this time

METAR text: LPMA 290700Z 01008KT 330V040 9999 BKN015 21/16 Q1021
Conditions at: LPMA (FUNCHAL/MADEIRA , PT) observed 0700 UTC 29 September 2022
Temperature: 21.0°C (70°F)
Dewpoint: 16.0°C (61°F) [RH = 73%]
Pressure (altimeter): 30.15 inches Hg (1021.0 mb)
Winds: from the N (10 degrees) at 9 MPH (8 knots; 4.1 m/s)
Visibility: 6 or more miles (10+ km)
Ceiling: 1500 feet AGL
Clouds: broken clouds at 1500 feet AGL
Weather: no significant weather observed at this time

Forecast for: LPMA (FUNCHAL/MADEIRA , PT)
Text: TAF LPMA 290500Z 2906/3006 01010KT 9999 SCT015
Forecast period: 0600 UTC 29 September 2022 to 0600 UTC 30 September 2022
Forecast type: FROM: standard forecast or significant change
Winds: from the N (10 degrees) at 12 MPH (10 knots; 5.1 m/s)
Visibility: 6 or more miles (10+ km)
Ceiling: at least 12,000 feet AGL
Clouds: scattered clouds at 1500 feet AGL
Weather: no significant weather forecast for this period
Text: TEMPO 2906/2912 BKN015
Forecast period: 0600 to 1200 UTC 29 September 2022
Forecast type: TEMPORARY: The following changes expected for less than half the time period
Visibility: missing
Ceiling: 1500 feet AGL
Clouds: broken clouds at 1500 feet AGL
Weather: no significant weather forecast for this period
Text: PROB30
Forecast period: 2100 UTC 29 September 2022 to 0600 UTC 30 September 2022
Forecast type: TEMPORARY: The following changes expected for less than half the time period
Visibility: 4 miles (6 km)
Ceiling: 1300 feet AGL
Clouds: scattered clouds at 800 feet AGL
broken clouds at 1300 feet AGL
Weather: -RA -DZ  (light rain, light drizzle)

 

AIRPORT MAP

 

RUNWAY INFORMATION

Runway 05 Runway length 9110 ft Runway width 148 ft
Runway elevation 147 ft Runway displaced threshold 480 ft Runway heading 45
Runway 23 Runway length 9110 ft Runway width 148 ft
Runway elevation 192 ft Runway displaced threshold 490 ft Runway heading 225

 

AIRPORT FREQUENCIES

Type APP Name APP Frequency 119.2 MHZ
Type TWR Name TWR Frequency 118.35 MHZ

 

AIRPORT NEAR NAVIGATION AIDS

Type VOR-DME Name Madeira Frequency 112200 KHZ
Type NDB Name Madeira Frequency 318 KHZ